createdAt,value
2023-06-21T00:00:56.589Z,5.70
2023-06-21T00:04:22.486Z,6.13
2023-06-21T00:07:22.568Z,5.33
2023-06-21T00:10:34.562Z,7.97
2023-06-21T00:13:40.564Z,6.90
2023-06-21T00:16:52.515Z,5.17
2023-06-21T00:20:05.616Z,5.93
2023-06-21T00:23:29.564Z,5.87
2023-06-21T00:26:29.575Z,7.73
2023-06-21T00:29:41.565Z,6.30
2023-06-21T00:32:41.624Z,6.77
2023-06-21T00:36:08.661Z,5.10
2023-06-21T00:39:08.619Z,9.57
2023-06-21T00:42:32.581Z,5.95
2023-06-21T00:45:44.664Z,6.60
2023-06-21T00:48:57.682Z,7.03
2023-06-21T00:52:11.672Z,6.63
2023-06-21T00:55:35.661Z,7.77
2023-06-21T00:58:35.729Z,5.70
2023-06-21T01:01:47.754Z,6.10
2023-06-21T01:04:59.728Z,5.37
2023-06-21T01:08:26.665Z,7.23
2023-06-21T01:11:39.715Z,5.67
2023-06-21T01:15:03.738Z,6.00
2023-06-21T01:18:15.792Z,5.73
2023-06-21T01:21:39.772Z,7.20
2023-06-21T01:24:54.766Z,6.45
2023-06-21T01:28:19.793Z,7.53
2023-06-21T01:31:33.858Z,6.53
2023-06-21T01:34:59.783Z,7.93
2023-06-21T01:38:12.800Z,10.80
2023-06-21T01:41:29.056Z,7.60
2023-06-21T01:44:38.834Z,8.55
2023-06-21T01:48:03.979Z,9.97
2023-06-21T01:51:27.807Z,7.53
2023-06-21T01:54:51.910Z,7.03
2023-06-21T01:58:03.895Z,8.00
2023-06-21T02:01:28.933Z,8.13
2023-06-21T02:04:54.933Z,11.13
2023-06-21T02:08:06.913Z,8.43
2023-06-21T02:11:30.920Z,8.17
2023-06-21T02:14:42.983Z,9.97
2023-06-21T02:18:10.940Z,8.07
2023-06-21T02:21:35.933Z,10.87
2023-06-21T02:24:47.969Z,8.93
2023-06-21T02:28:00.908Z,9.67
2023-06-21T02:31:01.039Z,12.63
2023-06-21T02:34:13.026Z,13.43
2023-06-21T02:37:27.045Z,10.50
2023-06-21T02:40:38.966Z,10.43
2023-06-21T02:43:39.003Z,12.25
2023-06-21T02:46:51.030Z,14.70
2023-06-21T02:49:53.343Z,12.57
2023-06-21T02:53:19.042Z,12.47
2023-06-21T02:56:32.039Z,13.60
2023-06-21T02:59:44.076Z,12.13
2023-06-21T03:02:45.193Z,12.27
2023-06-21T03:05:57.095Z,13.30
2023-06-21T03:09:11.073Z,13.03
2023-06-21T03:12:23.058Z,12.53
2023-06-21T03:15:47.155Z,12.43
2023-06-21T03:18:59.131Z,12.93
2023-06-21T03:22:12.483Z,14.77
2023-06-21T03:25:37.102Z,13.23
2023-06-21T03:29:01.164Z,12.73
2023-06-21T03:32:14.187Z,13.80
2023-06-21T03:35:39.223Z,14.40
2023-06-21T03:39:04.153Z,14.40
2023-06-21T03:42:18.146Z,14.20
2023-06-21T03:45:30.697Z,15.00
2023-06-21T03:48:43.255Z,13.73
2023-06-21T03:51:55.215Z,12.57
2023-06-21T03:54:55.192Z,13.30
2023-06-21T03:58:21.326Z,13.17
2023-06-21T04:01:21.304Z,12.77
2023-06-21T04:04:33.262Z,14.33
2023-06-21T04:07:33.311Z,14.83
2023-06-21T04:10:45.310Z,12.70
2023-06-21T04:14:11.267Z,16.47
2023-06-21T04:17:23.376Z,15.63
2023-06-21T04:20:37.311Z,14.13
2023-06-21T04:23:49.306Z,14.95
2023-06-21T04:26:49.331Z,15.65
2023-06-21T04:30:14.296Z,16.10
2023-06-21T04:33:14.369Z,15.03
2023-06-21T04:36:27.360Z,16.50
2023-06-21T04:39:40.328Z,15.70
2023-06-21T04:42:53.390Z,18.27
2023-06-21T04:46:07.439Z,18.70
2023-06-21T04:49:32.384Z,14.97
2023-06-21T04:52:32.376Z,15.97
2023-06-21T04:55:45.410Z,19.20
2023-06-21T04:58:46.415Z,20.30
2023-06-21T05:02:12.512Z,18.63
2023-06-21T05:05:24.510Z,23.53
2023-06-21T05:08:36.436Z,19.63
2023-06-21T05:11:36.444Z,17.87
2023-06-21T05:14:48.503Z,18.67
2023-06-21T05:18:02.609Z,19.43
2023-06-21T05:21:14.517Z,19.20
2023-06-21T05:24:14.482Z,17.67
2023-06-21T05:27:26.544Z,18.27
2023-06-21T05:30:29.837Z,19.30
2023-06-21T05:33:55.561Z,22.47
2023-06-21T05:36:55.494Z,20.53
2023-06-21T05:40:07.570Z,21.60
2023-06-21T05:43:07.583Z,19.50
2023-06-21T05:46:20.600Z,19.30
2023-06-21T05:49:49.988Z,19.30
2023-06-21T05:53:11.046Z,18.87
2023-06-21T05:56:21.749Z,19.97
2023-06-21T05:59:46.796Z,22.47
2023-06-21T06:03:07.157Z,19.93
2023-06-21T06:06:51.614Z,21.25
2023-06-21T06:09:59.066Z,23.73
2023-06-21T06:13:28.081Z,19.40
2023-06-21T06:16:42.052Z,19.07
2023-06-21T06:20:02.735Z,22.03
2023-06-21T06:23:33.807Z,17.37
2023-06-21T06:26:56.982Z,19.27
2023-06-21T06:29:58.851Z,17.97
2023-06-21T06:33:12.770Z,20.37
2023-06-21T06:36:12.666Z,17.97
2023-06-21T06:39:39.679Z,22.43
2023-06-21T06:42:40.021Z,16.80
2023-06-21T06:45:51.793Z,16.80
2023-06-21T06:49:03.764Z,17.07
2023-06-21T06:52:15.795Z,18.30
2023-06-21T06:55:29.802Z,17.07
2023-06-21T06:58:41.795Z,15.47
2023-06-21T07:01:41.806Z,16.83
2023-06-21T07:04:53.813Z,16.85
2023-06-21T07:07:53.789Z,16.07
2023-06-21T07:11:19.837Z,14.50
2023-06-21T07:14:19.785Z,15.77
2023-06-21T07:17:31.859Z,14.17
2023-06-21T07:20:32.192Z,15.40
2023-06-21T07:23:43.992Z,13.87
2023-06-21T07:26:57.890Z,14.93
2023-06-21T07:30:12.973Z,14.40
2023-06-21T07:33:12.940Z,14.10
2023-06-21T07:36:24.915Z,12.60
2023-06-21T07:43:02.932Z,12.70
2023-06-21T07:46:14.484Z,13.07
2023-06-21T07:49:14.920Z,12.73
2023-06-21T07:52:14.908Z,12.57
2023-06-21T07:55:27.337Z,12.85
2023-06-21T07:58:40.983Z,12.00
2023-06-21T08:01:54.015Z,16.40
2023-06-21T08:05:06.048Z,12.23
2023-06-21T08:08:06.060Z,13.57
2023-06-21T08:11:18.043Z,11.47
2023-06-21T08:14:31.993Z,11.73
2023-06-21T08:17:44.021Z,10.80
2023-06-21T08:20:44.027Z,10.80
2023-06-21T08:23:57.089Z,10.63
2023-06-21T08:26:57.052Z,10.50
2023-06-21T08:30:23.139Z,10.50
2023-06-21T08:33:35.073Z,9.03
2023-06-21T08:36:47.092Z,8.67
2023-06-21T08:39:47.091Z,9.30
2023-06-21T08:43:00.101Z,9.40
2023-06-21T08:46:16.169Z,9.93
2023-06-21T08:49:40.158Z,7.80
2023-06-21T08:52:52.124Z,8.30
2023-06-21T08:56:16.120Z,7.40
2023-06-21T08:59:28.156Z,8.40
2023-06-21T09:02:54.339Z,8.35
2023-06-21T10:08:12.387Z,5.00
2023-06-21T10:11:36.392Z,4.20
2023-06-21T10:14:48.386Z,4.50
2023-06-21T10:18:12.422Z,4.32
2023-06-21T10:21:25.371Z,4.72
2023-06-21T10:24:50.470Z,3.55
2023-06-21T10:28:02.608Z,4.40
2023-06-21T10:31:26.471Z,5.33
2023-06-21T10:34:38.386Z,4.95
2023-06-21T10:38:02.516Z,4.50
2023-06-21T10:41:16.507Z,4.20
2023-06-21T10:44:40.514Z,4.28
2023-06-21T10:47:52.443Z,5.03
2023-06-21T10:51:17.475Z,4.25
2023-06-21T10:54:29.495Z,4.10
2023-06-21T10:57:55.472Z,4.87
2023-06-21T11:01:08.479Z,5.05
2023-06-21T11:04:20.618Z,5.10
2023-06-21T11:07:20.504Z,5.05
2023-06-21T11:10:45.501Z,5.90
2023-06-21T11:14:01.559Z,4.72
2023-06-21T11:17:33.580Z,4.00
2023-06-21T11:20:46.618Z,5.95
2023-06-21T11:24:13.638Z,4.67
2023-06-21T11:27:27.601Z,4.47
2023-06-21T11:30:53.568Z,4.00
2023-06-21T11:34:17.625Z,4.18
2023-06-21T11:37:57.599Z,4.95
2023-06-21T11:40:57.609Z,5.53
2023-06-21T11:44:21.634Z,4.75
2023-06-21T11:47:41.744Z,5.20
2023-06-21T11:51:06.624Z,4.50
2023-06-21T11:54:18.644Z,4.25
2023-06-21T11:57:30.675Z,5.30
2023-06-21T12:00:31.696Z,3.53
2023-06-21T12:03:56.871Z,3.62
2023-06-21T12:06:56.746Z,4.18
2023-06-21T12:10:08.721Z,3.17
2023-06-21T12:13:08.857Z,4.15
2023-06-21T12:16:32.778Z,4.75
2023-06-21T12:19:46.746Z,4.03
2023-06-21T12:23:12.772Z,4.20
2023-06-21T12:26:24.793Z,3.35
2023-06-21T12:29:48.809Z,3.25
2023-06-21T12:36:14.782Z,3.50
2023-06-21T12:39:26.818Z,3.20
2023-06-21T12:42:53.849Z,2.70
2023-06-21T12:49:18.861Z,2.70
2023-06-21T12:58:44.864Z,2.60
2023-06-21T13:05:10.845Z,2.80
2023-06-21T13:08:22.896Z,2.80
2023-06-21T13:11:22.870Z,3.00
2023-06-21T13:14:49.912Z,2.20
2023-06-21T13:17:50.966Z,2.97
2023-06-21T13:21:02.886Z,2.75
2023-06-21T13:24:14.956Z,2.07
2023-06-21T13:27:26.941Z,2.15
2023-06-21T13:30:41.873Z,2.40
2023-06-21T13:34:06.000Z,2.90
2023-06-21T13:37:05.944Z,2.10
2023-06-21T13:43:08.980Z,2.53
2023-06-21T13:46:35.016Z,2.40
2023-06-21T13:49:35.008Z,3.67
2023-06-21T13:52:59.053Z,2.57
2023-06-21T13:55:59.055Z,2.75
2023-06-21T13:59:12.053Z,2.65
2023-06-21T14:05:38.079Z,2.60
2023-06-21T14:08:38.067Z,2.60
2023-06-21T14:18:03.263Z,2.97
2023-06-21T14:21:17.147Z,3.45
2023-06-21T14:24:42.151Z,2.20
2023-06-21T14:27:31.500Z,3.05
2023-06-21T14:30:44.133Z,4.05
2023-06-21T14:33:44.239Z,2.47
2023-06-21T14:37:10.211Z,2.10
2023-06-21T14:40:10.157Z,2.20
2023-06-21T14:43:22.225Z,2.33
2023-06-21T14:46:22.262Z,1.90
2023-06-21T14:49:34.122Z,2.78
2023-06-21T14:52:48.204Z,2.00
2023-06-21T14:56:01.127Z,1.92
2023-06-21T14:59:01.196Z,2.47
2023-06-21T15:02:13.274Z,2.25
2023-06-21T15:05:13.238Z,2.90
2023-06-21T15:08:39.233Z,2.92
2023-06-21T15:11:51.220Z,2.42
2023-06-21T15:15:03.208Z,2.33
2023-06-21T15:18:03.400Z,2.30
2023-06-21T15:21:27.291Z,2.50
2023-06-21T15:24:41.275Z,3.35
2023-06-21T15:27:54.258Z,2.80
2023-06-21T15:30:54.330Z,2.20
2023-06-21T15:34:06.289Z,2.00
2023-06-21T15:37:06.312Z,2.08
2023-06-21T15:40:23.997Z,2.87
2023-06-21T15:43:24.355Z,2.47
2023-06-21T15:46:48.457Z,2.10
2023-06-21T15:50:00.513Z,1.70
2023-06-21T15:53:14.336Z,1.90
2023-06-21T15:56:28.365Z,1.75
2023-06-21T15:59:40.397Z,2.40
2023-06-21T16:02:40.472Z,1.87
2023-06-21T16:06:05.412Z,2.40
2023-06-21T16:09:17.454Z,2.33
2023-06-21T16:12:43.504Z,2.22
2023-06-21T16:15:42.456Z,1.90
2023-06-21T16:19:06.400Z,2.20
2023-06-21T16:22:06.470Z,3.78
2023-06-21T16:25:18.510Z,2.00
2023-06-21T16:28:38.459Z,2.33
2023-06-21T16:32:03.527Z,2.30
2023-06-21T16:35:03.518Z,2.45
2023-06-21T16:38:15.539Z,1.73
2023-06-21T16:41:27.535Z,2.70
2023-06-21T16:44:53.560Z,2.47
2023-06-21T16:48:05.815Z,3.33
2023-06-21T16:51:20.573Z,2.25
2023-06-21T16:54:20.573Z,2.22
2023-06-21T16:57:32.527Z,4.97
2023-06-21T17:00:46.678Z,3.37
2023-06-21T17:03:58.760Z,2.90
2023-06-21T17:06:58.627Z,2.80
2023-06-21T17:10:11.606Z,2.90
2023-06-21T17:13:13.653Z,2.87
2023-06-21T17:16:42.672Z,2.53
2023-06-21T17:19:45.368Z,2.65
2023-06-21T17:22:58.689Z,4.00
2023-06-21T17:25:58.669Z,2.90
2023-06-21T17:29:11.639Z,3.13
2023-06-21T17:32:25.937Z,6.18
2023-06-21T17:35:37.733Z,3.83
2023-06-21T17:38:49.641Z,2.87
2023-06-21T17:42:02.853Z,2.80
2023-06-21T17:45:02.835Z,2.27
2023-06-21T17:48:29.813Z,3.25
2023-06-21T17:51:29.860Z,2.20
2023-06-21T17:54:42.678Z,2.65
2023-06-21T17:57:43.694Z,6.45
2023-06-21T18:00:55.698Z,2.77
2023-06-21T18:07:21.820Z,3.67
2023-06-21T19:12:50.986Z,2.30
2023-06-21T19:15:50.995Z,2.60
2023-06-21T19:19:03.012Z,3.97
2023-06-21T19:22:02.957Z,2.20
2023-06-21T19:25:14.997Z,2.80
2023-06-21T19:28:28.991Z,2.37
2023-06-21T19:31:41.169Z,2.53
2023-06-21T19:34:53.043Z,1.93
2023-06-21T19:38:05.048Z,2.73
2023-06-21T19:41:05.018Z,2.00
2023-06-21T19:44:33.117Z,2.07
2023-06-21T19:47:33.024Z,2.27
2023-06-21T19:50:57.109Z,2.40
2023-06-21T19:53:57.101Z,2.40
2023-06-21T19:57:10.127Z,2.80
2023-06-21T20:00:24.145Z,2.73
2023-06-21T20:03:37.103Z,2.27
2023-06-21T20:06:37.144Z,2.10
2023-06-21T20:09:49.156Z,2.87
2023-06-21T20:12:49.124Z,5.70
2023-06-21T20:16:15.149Z,2.73
2023-06-21T20:19:15.091Z,4.03
2023-06-21T20:22:39.150Z,2.60
2023-06-21T20:25:39.151Z,4.00
2023-06-21T20:28:51.193Z,2.63
2023-06-21T20:32:05.263Z,2.57
2023-06-21T20:35:18.211Z,4.73
2023-06-21T20:38:18.225Z,2.63
2023-06-21T20:41:30.356Z,2.57
2023-06-21T20:44:54.252Z,2.77
2023-06-21T20:48:20.270Z,2.87
2023-06-21T20:51:20.266Z,2.60
2023-06-21T20:54:32.204Z,2.37
2023-06-21T20:57:32.287Z,2.17
2023-06-21T21:00:57.256Z,2.60
2023-06-21T21:04:10.337Z,2.80
2023-06-21T21:07:22.328Z,2.00
2023-06-21T21:10:35.322Z,4.40
2023-06-21T21:13:59.397Z,2.10
2023-06-21T21:16:59.353Z,6.80
2023-06-21T21:20:25.472Z,3.00
2023-06-21T21:23:25.355Z,3.03
2023-06-21T21:26:40.357Z,3.05
2023-06-21T21:29:40.422Z,6.57
2023-06-21T21:32:52.382Z,2.77
2023-06-21T21:36:06.441Z,4.30
2023-06-21T21:39:18.452Z,3.30
2023-06-21T21:42:19.394Z,4.93
2023-06-21T21:45:31.407Z,6.97
2023-06-21T21:48:31.918Z,8.23
2023-06-21T21:51:58.467Z,9.30
2023-06-21T21:54:58.429Z,5.97
2023-06-21T21:58:10.451Z,12.80
2023-06-21T22:01:10.437Z,11.20
2023-06-21T22:04:23.660Z,11.77
2023-06-21T22:07:36.459Z,13.67
2023-06-21T22:10:48.564Z,12.67
2023-06-21T22:14:00.704Z,11.35
2023-06-21T22:17:12.518Z,15.93
2023-06-21T22:20:12.608Z,8.70
2023-06-21T22:23:39.552Z,12.47
2023-06-21T22:26:39.615Z,15.63
2023-06-21T22:30:03.514Z,15.10
2023-06-21T22:33:03.721Z,15.10
2023-06-21T22:36:27.569Z,13.60
2023-06-21T22:39:41.569Z,13.25
2023-06-21T22:42:53.620Z,13.83
2023-06-21T22:45:54.618Z,17.80
2023-06-21T22:49:06.681Z,24.93
2023-06-21T22:52:06.597Z,16.90
2023-06-21T22:55:32.611Z,14.30
2023-06-21T22:58:32.656Z,16.37
2023-06-21T23:01:44.641Z,18.03
2023-06-21T23:04:44.761Z,16.47
2023-06-21T23:07:56.728Z,19.03
2023-06-21T23:11:10.692Z,11.97
2023-06-21T23:14:23.653Z,13.30
2023-06-21T23:17:23.674Z,16.20
2023-06-21T23:20:36.779Z,18.77
2023-06-21T23:23:36.705Z,15.13
2023-06-21T23:27:02.770Z,17.20
2023-06-21T23:30:02.745Z,14.17
2023-06-21T23:33:26.808Z,13.73
2023-06-21T23:36:40.428Z,15.30
2023-06-21T23:39:50.789Z,17.27
2023-06-21T23:43:05.797Z,16.83
2023-06-21T23:46:30.902Z,18.27
2023-06-21T23:49:30.842Z,12.37
2023-06-21T23:52:42.779Z,12.23
2023-06-21T23:55:42.841Z,14.47
2023-06-21T23:59:08.869Z,17.87
